createdAt,value
2023-02-19T16:02:19.660Z,26.67
2023-02-19T16:02:52.721Z,34.00
2023-02-19T16:03:27.647Z,45.67
2023-02-19T16:04:01.032Z,59.67
2023-02-19T16:04:36.239Z,67.00
2023-02-19T16:05:27.935Z,76.33
2023-02-19T16:06:10.662Z,81.00
2023-02-19T16:07:01.129Z,80.67
2023-02-19T16:07:33.840Z,86.33
2023-02-19T16:08:20.867Z,88.67
2023-02-19T16:08:53.137Z,91.00
2023-02-19T16:09:38.101Z,93.00
2023-02-19T16:10:25.810Z,93.00
2023-02-19T16:11:01.577Z,101.67
2023-02-19T16:11:40.145Z,93.33
2023-02-19T16:12:28.332Z,92.00
2023-02-19T16:13:03.162Z,101.33
2023-02-19T16:13:35.626Z,95.33
2023-02-19T16:14:24.052Z,93.33
2023-02-19T16:14:56.420Z,95.00
2023-02-19T16:15:31.761Z,97.00
2023-02-19T16:16:10.187Z,98.67
2023-02-19T16:16:46.522Z,100.33
2023-02-19T16:17:28.297Z,94.67
2023-02-19T16:18:05.481Z,97.00
2023-02-19T16:18:41.345Z,98.67
2023-02-19T16:19:14.446Z,97.00
2023-02-19T16:19:54.068Z,97.00
2023-02-19T16:20:43.296Z,97.00
2023-02-19T16:21:21.102Z,99.67
2023-02-19T16:22:00.547Z,99.67
2023-02-19T16:22:42.206Z,99.67
2023-02-19T16:23:21.358Z,99.00
2023-02-19T16:24:04.428Z,99.33
2023-02-19T16:24:46.974Z,99.00
2023-02-19T16:25:30.433Z,99.00
2023-02-19T16:26:03.966Z,98.00
2023-02-19T16:26:49.894Z,98.00
2023-02-19T16:27:35.344Z,98.00
2023-02-19T16:28:12.200Z,99.00
2023-02-19T16:28:45.286Z,99.00
2023-02-19T16:29:21.602Z,99.00
2023-02-19T16:29:54.357Z,100.00
2023-02-19T16:30:34.668Z,99.00
2023-02-19T16:31:14.321Z,99.00
2023-02-19T16:31:58.793Z,100.00
2023-02-19T16:32:31.666Z,100.00
2023-02-19T16:33:41.959Z,100.00
2023-02-19T16:34:32.377Z,100.00
2023-02-19T16:35:05.425Z,100.00
2023-02-19T16:35:42.366Z,100.00
2023-02-19T16:36:37.492Z,100.00
2023-02-19T16:37:44.676Z,100.00
2023-02-19T16:38:21.168Z,100.00
2023-02-19T16:39:03.706Z,100.67
2023-02-19T16:39:36.493Z,100.67
2023-02-19T16:40:09.319Z,101.00
2023-02-19T16:40:54.794Z,100.67
2023-02-19T16:41:27.703Z,119.00
2023-02-19T16:42:00.261Z,119.00
2023-02-19T16:42:32.884Z,122.00
2023-02-19T16:43:27.264Z,249.00
2023-02-19T16:44:02.715Z,131.33
2023-02-19T16:44:40.183Z,130.00
2023-02-19T16:45:13.742Z,122.67
2023-02-19T16:45:48.011Z,159.33
2023-02-19T16:46:23.066Z,96.67
2023-02-19T16:46:59.010Z,57.00
2023-02-19T16:47:41.825Z,93.33
2023-02-19T16:48:15.213Z,368.67
2023-02-19T16:48:48.322Z,205.00
2023-02-19T16:49:23.718Z,84.67
2023-02-19T16:49:59.144Z,38.67
2023-02-19T16:50:31.910Z,31.00
2023-02-19T16:51:07.301Z,22.67
2023-02-19T16:51:40.634Z,19.00
2023-02-19T16:52:16.520Z,19.33
2023-02-19T16:52:56.226Z,22.00
2023-02-19T16:53:32.883Z,22.00
2023-02-19T16:54:09.515Z,21.33
2023-02-19T16:54:41.869Z,21.00
2023-02-19T16:56:01.211Z,22.67
2023-02-19T16:56:34.106Z,22.67
2023-02-19T16:57:06.241Z,23.00
2023-02-19T16:57:38.200Z,22.67
2023-02-19T16:58:20.977Z,32.67
2023-02-19T16:58:53.263Z,38.67
2023-02-19T16:59:25.957Z,30.67
2023-02-19T16:59:58.276Z,27.00
2023-02-19T17:00:32.531Z,24.33
2023-02-19T17:01:06.785Z,25.00
2023-02-19T17:01:39.920Z,25.00
2023-02-19T17:02:19.996Z,24.00
2023-02-19T17:03:00.697Z,24.67
2023-02-19T17:03:33.801Z,25.33
2023-02-19T17:04:14.187Z,26.67
2023-02-19T17:04:48.647Z,26.33
2023-02-19T17:05:28.376Z,25.33
2023-02-19T17:06:01.255Z,25.33
2023-02-19T17:06:35.366Z,26.00
2023-02-19T17:07:09.780Z,25.33
2023-02-19T17:07:42.599Z,25.00
2023-02-19T17:08:34.186Z,25.00
2023-02-19T17:09:09.024Z,25.67
2023-02-19T17:09:41.740Z,26.00
2023-02-19T17:10:18.636Z,26.00
2023-02-19T17:10:50.620Z,26.67
2023-02-19T17:11:35.141Z,27.00
2023-02-19T17:12:13.042Z,27.00
2023-02-19T17:12:45.766Z,27.00
2023-02-19T17:13:24.385Z,27.00
2023-02-19T17:13:57.210Z,27.00
2023-02-19T17:14:30.786Z,27.00
2023-02-19T17:15:03.494Z,28.00
2023-02-19T17:15:36.181Z,28.00
2023-02-19T17:16:14.178Z,28.00
2023-02-19T17:16:47.559Z,27.67
2023-02-19T17:17:23.347Z,27.00
2023-02-19T17:17:56.082Z,28.00
2023-02-19T17:18:30.209Z,28.00
2023-02-19T17:19:08.889Z,28.00
2023-02-19T17:19:42.539Z,28.00
2023-02-19T17:20:24.118Z,28.00
2023-02-19T17:21:13.309Z,29.00
2023-02-19T17:21:47.667Z,29.67
2023-02-19T17:22:19.956Z,30.33
2023-02-19T17:22:52.784Z,31.00
2023-02-19T17:23:25.300Z,31.67
2023-02-19T17:24:01.527Z,32.00
2023-02-19T17:24:39.332Z,32.00
2023-02-19T17:25:12.172Z,32.00
2023-02-19T17:25:45.082Z,32.00
2023-02-19T17:26:21.149Z,32.00
2023-02-19T17:26:53.960Z,31.00
2023-02-19T17:27:27.724Z,31.00
2023-02-19T17:28:00.505Z,31.00
2023-02-19T17:28:33.371Z,31.00
2023-02-19T17:29:09.085Z,31.00
2023-02-19T17:29:42.151Z,30.00
2023-02-19T17:30:30.879Z,30.00
2023-02-19T17:31:06.991Z,41.67
2023-02-19T17:31:39.374Z,111.33
2023-02-19T17:32:11.625Z,220.33
2023-02-19T17:32:53.837Z,224.33
2023-02-19T17:33:25.937Z,116.33
2023-02-19T17:33:59.591Z,165.33
2023-02-19T17:34:32.752Z,186.33
2023-02-19T17:35:08.317Z,115.33
2023-02-19T17:35:42.527Z,97.33
2023-02-19T17:36:24.398Z,78.00
2023-02-19T17:36:59.623Z,51.67
2023-02-19T17:37:35.175Z,45.00
2023-02-19T17:38:10.103Z,42.67
2023-02-19T17:38:43.081Z,40.00
2023-02-19T17:39:21.297Z,36.67
2023-02-19T17:39:53.692Z,35.33
2023-02-19T17:40:33.716Z,37.00
2023-02-19T17:41:06.492Z,39.33
2023-02-19T17:41:39.229Z,39.33
2023-02-19T17:42:11.950Z,39.00
2023-02-19T17:42:44.857Z,38.67
2023-02-19T17:43:17.552Z,35.67
2023-02-19T17:43:54.180Z,32.33
2023-02-19T17:44:26.358Z,32.00
2023-02-19T17:45:00.244Z,32.00
2023-02-19T17:45:33.566Z,31.33
2023-02-19T17:46:06.512Z,31.00
2023-02-19T17:46:41.173Z,31.00
2023-02-19T17:47:13.993Z,31.33
2023-02-19T17:47:48.208Z,32.00
2023-02-19T17:48:21.812Z,32.00
2023-02-19T17:48:55.878Z,33.00
2023-02-19T17:49:28.562Z,33.00
2023-02-19T17:50:05.415Z,33.67
2023-02-19T17:50:37.960Z,34.00
2023-02-19T17:51:11.176Z,34.00
2023-02-19T17:51:45.213Z,34.00
2023-02-19T17:52:19.991Z,34.00
2023-02-19T17:52:52.825Z,34.67
2023-02-19T17:53:25.430Z,35.00
2023-02-19T17:53:58.153Z,35.00
2023-02-19T17:54:31.097Z,35.00
2023-02-19T17:55:05.604Z,35.00
2023-02-19T17:55:38.680Z,35.00
2023-02-19T17:56:18.624Z,35.67
2023-02-19T17:56:51.322Z,36.00
2023-02-19T17:57:24.143Z,36.00
2023-02-19T17:57:58.166Z,36.00
2023-02-19T17:58:31.182Z,36.00
2023-02-19T17:59:03.870Z,36.00
2023-02-19T17:59:36.991Z,36.00
2023-02-19T18:00:14.664Z,36.00
2023-02-19T18:00:47.675Z,36.00
2023-02-19T18:01:20.520Z,36.00
2023-02-19T18:01:53.304Z,36.00
2023-02-19T18:02:26.037Z,36.00
2023-02-19T18:02:59.220Z,36.00
2023-02-19T18:03:31.760Z,36.00
2023-02-19T18:04:05.002Z,36.00
2023-02-19T18:04:39.588Z,36.00
2023-02-19T18:05:17.258Z,36.00
2023-02-19T18:05:50.482Z,36.00
2023-02-19T18:06:23.149Z,35.67
2023-02-19T18:06:56.479Z,35.00
2023-02-19T18:07:28.794Z,35.00
2023-02-19T18:08:00.935Z,35.00
2023-02-19T18:08:33.856Z,35.00
2023-02-19T18:09:06.654Z,35.00
2023-02-19T18:09:41.544Z,35.00
2023-02-19T18:10:15.679Z,34.67
2023-02-19T18:10:48.634Z,34.00
2023-02-19T18:11:23.740Z,34.00
2023-02-19T18:11:56.471Z,34.00
2023-02-19T18:12:30.429Z,34.00
2023-02-19T18:13:03.241Z,34.00
2023-02-19T18:13:36.858Z,34.00
2023-02-19T18:14:09.482Z,34.00
2023-02-19T18:14:42.057Z,34.00
2023-02-19T18:15:26.778Z,34.00
2023-02-19T18:16:00.070Z,34.00
2023-02-19T18:16:34.194Z,34.00
2023-02-19T18:17:07.741Z,34.00
2023-02-19T18:17:41.586Z,34.00
2023-02-19T18:18:15.760Z,33.00
2023-02-19T18:18:49.709Z,33.00
2023-02-19T18:19:23.500Z,33.00
2023-02-19T18:19:56.589Z,33.00
2023-02-19T18:20:29.973Z,33.00
2023-02-19T18:21:06.979Z,33.00
2023-02-19T18:21:40.165Z,33.00
2023-02-19T18:22:12.764Z,33.00
2023-02-19T18:22:45.405Z,33.00
2023-02-19T18:23:17.865Z,33.00
2023-02-19T18:23:50.151Z,33.00
2023-02-19T18:24:23.481Z,33.00
2023-02-19T18:24:57.662Z,33.00
2023-02-19T18:25:33.413Z,33.00
2023-02-19T18:26:11.035Z,33.00
2023-02-19T18:26:43.761Z,33.00
2023-02-19T18:27:19.352Z,33.00
2023-02-19T18:27:52.729Z,33.00
2023-02-19T18:28:26.173Z,33.00
2023-02-19T18:29:01.671Z,33.00
2023-02-19T18:29:35.146Z,33.00
2023-02-19T18:30:08.942Z,33.00
2023-02-19T18:30:41.705Z,33.67
2023-02-19T18:31:14.909Z,34.00
2023-02-19T18:31:48.760Z,34.00
2023-02-19T18:32:23.617Z,34.00
2023-02-19T18:32:56.156Z,34.00
2023-02-19T18:33:28.939Z,34.00
2023-02-19T18:34:02.085Z,34.00
2023-02-19T18:34:35.873Z,34.00
2023-02-19T18:35:09.481Z,34.00
2023-02-19T18:35:42.794Z,35.67
2023-02-19T18:36:17.746Z,55.67
2023-02-19T18:36:51.351Z,83.67
2023-02-19T18:37:26.938Z,169.00
2023-02-19T18:38:01.927Z,109.33
2023-02-19T18:38:34.791Z,143.33
2023-02-19T18:39:06.950Z,175.00
2023-02-19T18:39:39.730Z,137.33
2023-02-19T18:40:13.056Z,191.00
2023-02-19T18:40:45.768Z,231.33
2023-02-19T18:41:21.394Z,281.33
2023-02-19T18:41:54.152Z,240.67
2023-02-19T18:42:27.476Z,268.33
2023-02-19T18:43:00.554Z,315.00
2023-02-19T18:43:33.661Z,288.00
2023-02-19T18:44:06.027Z,215.33
2023-02-19T18:44:39.424Z,304.00
2023-02-19T18:45:21.221Z,276.33
2023-02-19T18:45:54.930Z,235.33
2023-02-19T18:46:28.531Z,209.00
2023-02-19T18:47:01.678Z,209.00
2023-02-19T18:47:34.518Z,247.67
2023-02-19T18:48:07.322Z,281.33
2023-02-19T18:48:40.462Z,289.67
2023-02-19T18:49:15.128Z,299.67
2023-02-19T18:49:49.771Z,212.00
2023-02-19T18:50:22.608Z,126.33
2023-02-19T18:50:54.591Z,82.67
2023-02-19T18:51:27.150Z,69.33
2023-02-19T18:52:02.036Z,66.67
2023-02-19T18:52:34.978Z,65.33
2023-02-19T18:53:08.510Z,60.33
2023-02-19T18:53:43.739Z,56.67
2023-02-19T18:54:16.477Z,56.00
2023-02-19T18:54:51.205Z,54.67
2023-02-19T18:55:24.033Z,51.67
2023-02-19T18:55:58.071Z,50.00
2023-02-19T18:56:31.670Z,49.00
2023-02-19T18:57:05.244Z,49.67
2023-02-19T18:57:38.250Z,49.00
2023-02-19T18:58:14.060Z,48.00
2023-02-19T18:58:48.222Z,47.33
2023-02-19T18:59:22.241Z,46.67
2023-02-19T18:59:54.841Z,46.00
2023-02-19T19:00:28.792Z,55.67
2023-02-19T19:01:01.534Z,162.00
2023-02-19T19:01:34.294Z,120.33
2023-02-19T19:02:09.991Z,106.00
2023-02-19T19:02:49.074Z,104.00
2023-02-19T19:03:22.425Z,84.33
2023-02-19T19:03:55.242Z,71.67
2023-02-19T19:04:29.615Z,77.33
2023-02-19T19:05:02.613Z,67.33
2023-02-19T19:05:35.431Z,61.67
2023-02-19T19:06:09.471Z,64.67
2023-02-19T19:06:44.749Z,56.33
2023-02-19T19:07:18.022Z,53.00
2023-02-19T19:07:55.676Z,48.67
2023-02-19T19:08:32.618Z,50.67
2023-02-19T19:09:06.671Z,47.00
2023-02-19T19:09:40.210Z,46.67
2023-02-19T19:10:14.327Z,45.00
2023-02-19T19:10:47.017Z,46.67
2023-02-19T19:11:22.624Z,45.33
2023-02-19T19:11:55.303Z,42.33
2023-02-19T19:12:28.396Z,42.67
2023-02-19T19:13:01.175Z,45.33
2023-02-19T19:13:34.107Z,86.33
2023-02-19T19:14:07.112Z,245.00
2023-02-19T19:14:39.721Z,147.33
2023-02-19T19:15:12.598Z,95.00
2023-02-19T19:15:50.825Z,63.33
2023-02-19T19:16:28.512Z,47.67
2023-02-19T19:17:01.154Z,45.00
2023-02-19T19:17:35.659Z,44.00
2023-02-19T19:18:09.680Z,43.00
2023-02-19T19:18:42.595Z,43.00
2023-02-19T19:19:16.236Z,43.00
2023-02-19T19:19:48.970Z,48.67
2023-02-19T19:20:26.018Z,52.00
2023-02-19T19:21:05.944Z,54.00
2023-02-19T19:21:41.197Z,53.33
2023-02-19T19:22:13.950Z,50.33
2023-02-19T19:22:49.005Z,46.00
2023-02-19T19:23:22.085Z,43.00
2023-02-19T19:23:54.882Z,41.33
2023-02-19T19:24:30.706Z,41.00
2023-02-19T19:25:04.999Z,41.67
2023-02-19T19:25:38.465Z,40.33
2023-02-19T19:26:11.364Z,48.33
2023-02-19T19:26:46.498Z,156.67
2023-02-19T19:27:21.408Z,170.00
2023-02-19T19:27:57.143Z,131.33
2023-02-19T19:28:31.371Z,106.67
2023-02-19T19:29:05.025Z,199.00
2023-02-19T19:29:37.640Z,252.33
2023-02-19T19:30:10.549Z,258.00
2023-02-19T19:30:43.661Z,203.00
2023-02-19T19:31:18.525Z,136.67
2023-02-19T19:31:51.243Z,88.67
2023-02-19T19:32:26.365Z,63.67
2023-02-19T19:32:59.106Z,56.67
2023-02-19T19:33:32.063Z,55.67
2023-02-19T19:34:06.432Z,53.67
2023-02-19T19:34:39.387Z,53.33
2023-02-19T19:35:12.159Z,53.00
2023-02-19T19:35:45.727Z,49.67
2023-02-19T19:36:24.027Z,48.00
2023-02-19T19:36:57.933Z,44.67
2023-02-19T19:37:30.776Z,61.00
2023-02-19T19:38:03.373Z,180.33
2023-02-19T19:38:36.186Z,149.67
2023-02-19T19:39:10.272Z,191.67
2023-02-19T19:39:44.367Z,198.00
2023-02-19T19:40:25.072Z,320.67
2023-02-19T19:40:57.945Z,259.00
2023-02-19T19:41:31.024Z,201.33
2023-02-19T19:42:11.736Z,190.00
2023-02-19T19:42:44.692Z,140.33
2023-02-19T19:43:18.869Z,84.33
2023-02-19T19:43:51.962Z,65.00
2023-02-19T19:44:25.910Z,61.00
2023-02-19T19:44:59.065Z,60.00
2023-02-19T19:45:31.981Z,57.67
2023-02-19T19:46:05.186Z,54.00
2023-02-19T19:46:45.250Z,52.67
2023-02-19T19:47:18.517Z,50.67
2023-02-19T19:47:51.096Z,50.33
2023-02-19T19:48:24.901Z,59.00
2023-02-19T19:49:07.816Z,66.67
2023-02-19T19:49:41.709Z,59.00
2023-02-19T19:50:14.629Z,63.67
2023-02-19T19:50:47.225Z,75.00
2023-02-19T19:51:22.103Z,77.00
2023-02-19T19:51:56.580Z,74.33
2023-02-19T19:52:31.100Z,75.00
2023-02-19T19:53:06.887Z,70.67
2023-02-19T19:53:39.793Z,65.00
2023-02-19T19:54:13.425Z,58.33
2023-02-19T19:54:45.999Z,53.33
2023-02-19T19:55:22.026Z,52.00
2023-02-19T19:55:54.680Z,50.67
2023-02-19T19:56:32.786Z,45.00
2023-02-19T19:57:04.991Z,43.00
2023-02-19T19:57:40.835Z,44.33
2023-02-19T19:58:15.155Z,45.33
2023-02-19T19:58:48.398Z,43.67
2023-02-19T19:59:23.701Z,41.67
2023-02-19T19:59:57.348Z,41.00
2023-02-19T20:00:30.205Z,42.00
2023-02-19T20:01:03.822Z,43.00
2023-02-19T20:01:36.832Z,43.00
2023-02-19T20:02:12.888Z,42.00
2023-02-19T20:02:47.240Z,40.33
2023-02-19T20:03:21.798Z,40.33
2023-02-19T20:03:54.694Z,41.67
2023-02-19T20:04:28.452Z,43.00
2023-02-19T20:05:01.814Z,43.00
2023-02-19T20:05:34.701Z,43.33
2023-02-19T20:06:07.580Z,44.00
2023-02-19T20:06:40.188Z,44.67
2023-02-19T20:07:13.644Z,45.67
2023-02-19T20:07:47.536Z,46.00
2023-02-19T20:08:20.564Z,46.00
2023-02-19T20:08:54.299Z,45.00
2023-02-19T20:09:29.648Z,40.67
2023-02-19T20:10:02.259Z,37.00
2023-02-19T20:10:35.990Z,34.33
2023-02-19T20:11:08.669Z,32.67
2023-02-19T20:11:49.081Z,31.33
2023-02-19T20:12:21.762Z,31.00
2023-02-19T20:12:54.217Z,30.33
2023-02-19T20:13:29.349Z,30.33
2023-02-19T20:14:06.162Z,30.00
2023-02-19T20:14:41.588Z,48.00
2023-02-19T20:15:14.795Z,107.67
2023-02-19T20:15:47.657Z,155.00
2023-02-19T20:16:29.775Z,103.00
2023-02-19T20:17:05.700Z,102.33
2023-02-19T20:17:40.203Z,139.33
2023-02-19T20:18:15.375Z,96.00
2023-02-19T20:18:50.757Z,134.00
2023-02-19T20:19:24.510Z,119.33
2023-02-19T20:19:58.391Z,154.67
2023-02-19T20:20:31.699Z,124.33
2023-02-19T20:21:05.684Z,101.33
2023-02-19T20:21:38.514Z,94.33
2023-02-19T20:22:13.629Z,70.33
2023-02-19T20:22:45.977Z,52.00
2023-02-19T20:23:18.645Z,42.67
2023-02-19T20:23:51.410Z,39.67
2023-02-19T20:24:29.085Z,34.67
2023-02-19T20:25:03.769Z,32.67
2023-02-19T20:25:37.325Z,32.67
2023-02-19T20:26:10.330Z,31.67
2023-02-19T20:26:43.295Z,30.67
2023-02-19T20:27:15.842Z,29.33
2023-02-19T20:27:50.078Z,28.67
2023-02-19T20:28:22.774Z,29.00
2023-02-19T20:28:57.717Z,29.00
2023-02-19T20:29:33.258Z,28.67
2023-02-19T20:30:06.910Z,28.00
2023-02-19T20:30:40.369Z,28.33
2023-02-19T20:31:15.970Z,28.33
2023-02-19T20:31:53.298Z,30.67
2023-02-19T20:32:26.368Z,32.00
2023-02-19T20:33:02.681Z,30.33
2023-02-19T20:33:36.890Z,28.33
2023-02-19T20:34:09.292Z,27.00
2023-02-19T20:34:42.223Z,27.00
2023-02-19T20:35:16.165Z,26.67
2023-02-19T20:35:48.804Z,26.00
2023-02-19T20:36:21.779Z,26.00
2023-02-19T20:36:55.098Z,26.00
2023-02-19T20:37:29.231Z,28.00
2023-02-19T20:38:03.661Z,31.00
2023-02-19T20:38:36.490Z,31.00
2023-02-19T20:39:10.101Z,30.33
2023-02-19T20:39:45.029Z,29.67
2023-02-19T20:40:19.005Z,29.33
2023-02-19T20:40:51.760Z,37.67
2023-02-19T20:41:25.009Z,43.67
2023-02-19T20:42:00.326Z,43.00
2023-02-19T20:42:32.911Z,41.67
2023-02-19T20:43:05.632Z,39.67
2023-02-19T20:43:38.248Z,38.33
2023-02-19T20:45:00.830Z,33.67
2023-02-19T20:45:34.914Z,32.33
2023-02-19T20:46:09.246Z,31.33
2023-02-19T20:46:47.005Z,30.33
2023-02-19T20:47:22.772Z,29.33
2023-02-19T20:47:55.844Z,29.00
2023-02-19T20:48:33.602Z,29.00
2023-02-19T20:49:06.243Z,28.33
2023-02-19T20:49:38.777Z,28.00
2023-02-19T20:50:12.134Z,28.00
2023-02-19T20:50:45.471Z,28.00
2023-02-19T20:51:18.082Z,27.33
2023-02-19T20:52:01.479Z,27.00
2023-02-19T20:52:33.917Z,27.00
2023-02-19T20:53:06.559Z,27.00
2023-02-19T20:53:40.790Z,27.00
2023-02-19T20:54:17.586Z,27.00
2023-02-19T20:54:50.311Z,27.00
2023-02-19T20:55:24.304Z,26.00
2023-02-19T20:55:58.751Z,26.00
2023-02-19T20:56:31.025Z,26.00
2023-02-19T20:57:05.552Z,26.00
2023-02-19T20:57:38.946Z,26.00
2023-02-19T20:58:12.824Z,26.00
2023-02-19T20:58:45.193Z,26.00
2023-02-19T20:59:19.343Z,26.00
2023-02-19T20:59:51.516Z,26.00
2023-02-19T21:00:25.283Z,25.00
2023-02-19T21:00:57.763Z,25.00
2023-02-19T21:01:30.498Z,25.00
2023-02-19T21:02:04.994Z,25.00
2023-02-19T21:02:38.078Z,25.00
2023-02-19T21:03:12.166Z,25.00
2023-02-19T21:03:44.906Z,25.00
2023-02-19T21:04:20.132Z,25.00
2023-02-19T21:04:52.661Z,25.00
2023-02-19T21:05:25.326Z,25.00
2023-02-19T21:05:57.492Z,25.00
2023-02-19T21:06:29.901Z,25.00
2023-02-19T21:07:02.422Z,25.00
2023-02-19T21:07:36.073Z,25.00
2023-02-19T21:08:08.645Z,25.00
2023-02-19T21:08:41.192Z,25.00
2023-02-19T21:09:13.904Z,25.00
2023-02-19T21:09:46.414Z,25.00
2023-02-19T21:10:19.125Z,25.00
2023-02-19T21:10:51.718Z,25.00
2023-02-19T21:11:24.410Z,25.00
2023-02-19T21:11:57.183Z,25.00
2023-02-19T21:12:29.301Z,25.00
2023-02-19T21:13:01.894Z,29.00
2023-02-19T21:13:35.670Z,33.67
2023-02-19T21:14:08.384Z,33.33
2023-02-19T21:14:42.017Z,36.00
2023-02-19T21:15:14.922Z,60.00
2023-02-19T21:15:46.828Z,54.33
2023-02-19T21:16:19.451Z,85.67
2023-02-19T21:16:52.167Z,63.33
2023-02-19T21:17:24.939Z,60.00
2023-02-19T21:17:57.743Z,60.00
2023-02-19T21:18:30.183Z,63.00
2023-02-19T21:19:02.761Z,109.67
2023-02-19T21:19:35.365Z,95.33
2023-02-19T21:20:08.795Z,70.33
2023-02-19T21:20:42.328Z,64.67
2023-02-19T21:21:19.057Z,82.33
2023-02-19T21:21:51.282Z,93.33
2023-02-19T21:22:23.481Z,72.33
2023-02-19T21:22:55.771Z,70.00
2023-02-19T21:23:29.394Z,68.33
2023-02-19T21:24:03.798Z,62.67
2023-02-19T21:24:36.169Z,53.00
2023-02-19T21:25:08.516Z,42.67
2023-02-19T21:25:40.459Z,39.67
2023-02-19T21:26:12.843Z,36.00
2023-02-19T21:26:47.088Z,32.67
2023-02-19T21:27:20.316Z,31.33
2023-02-19T21:27:52.244Z,30.00
2023-02-19T21:28:25.015Z,29.00
2023-02-19T21:28:57.423Z,28.67
2023-02-19T21:29:29.524Z,28.00
2023-02-19T21:30:02.268Z,28.00
2023-02-19T21:30:34.633Z,27.33
2023-02-19T21:31:07.137Z,27.00
2023-02-19T21:31:50.727Z,26.33
2023-02-19T21:32:22.854Z,26.00
2023-02-19T21:32:54.795Z,26.00
2023-02-19T21:33:27.953Z,26.00
2023-02-19T21:34:00.330Z,26.00
2023-02-19T21:34:32.481Z,26.00
2023-02-19T21:35:04.914Z,26.00
2023-02-19T21:35:37.145Z,25.33
2023-02-19T21:36:09.518Z,25.67
2023-02-19T21:36:41.461Z,26.00
2023-02-19T21:37:13.608Z,26.00
2023-02-19T21:37:45.728Z,26.00
2023-02-19T21:38:17.815Z,26.00
2023-02-19T21:38:50.230Z,26.00
2023-02-19T21:39:24.655Z,25.33
2023-02-19T21:39:56.692Z,25.00
2023-02-19T21:40:30.354Z,25.00
2023-02-19T21:41:07.001Z,25.00
2023-02-19T21:41:39.628Z,25.00
2023-02-19T21:42:11.408Z,25.00
2023-02-19T21:42:43.332Z,25.00
2023-02-19T21:43:15.374Z,25.00
2023-02-19T21:43:47.394Z,25.33
2023-02-19T21:44:21.209Z,25.00
2023-02-19T21:44:52.983Z,25.00
2023-02-19T21:45:24.994Z,25.00
2023-02-19T21:45:57.519Z,25.00
2023-02-19T21:46:29.686Z,25.00
2023-02-19T21:47:01.979Z,25.00
2023-02-19T21:47:35.905Z,25.00
2023-02-19T21:48:08.530Z,25.00
2023-02-19T21:48:40.211Z,25.00
2023-02-19T21:49:12.889Z,25.00
2023-02-19T21:49:45.098Z,25.00
2023-02-19T21:50:17.083Z,25.00
2023-02-19T21:50:49.242Z,25.00
2023-02-19T21:51:27.849Z,25.00
2023-02-19T21:52:00.230Z,25.00
2023-02-19T21:52:32.978Z,25.00
2023-02-19T21:53:05.703Z,25.00
2023-02-19T21:53:37.513Z,25.00
2023-02-19T21:54:18.326Z,25.00
2023-02-19T21:54:50.120Z,25.00
2023-02-19T21:55:21.940Z,25.00
2023-02-19T21:55:58.782Z,25.00
2023-02-19T21:56:44.395Z,25.00
2023-02-19T21:57:16.200Z,25.00
2023-02-19T21:57:47.924Z,25.00
2023-02-19T21:58:19.762Z,25.00
2023-02-19T21:58:51.815Z,25.00
2023-02-19T21:59:23.721Z,25.00
2023-02-19T21:59:55.838Z,25.00
2023-02-19T22:00:27.708Z,25.00
2023-02-19T22:00:59.621Z,25.00
2023-02-19T22:01:38.683Z,25.00
2023-02-19T22:02:10.672Z,25.00
2023-02-19T22:02:43.412Z,25.00
2023-02-19T22:03:16.514Z,25.00
2023-02-19T22:03:48.713Z,25.00
2023-02-19T22:04:21.952Z,25.00
2023-02-19T22:04:55.657Z,25.00
2023-02-19T22:05:27.496Z,25.00
2023-02-19T22:06:02.448Z,25.00
2023-02-19T22:06:35.054Z,25.00
2023-02-19T22:07:06.957Z,25.00
2023-02-19T22:07:39.014Z,25.00
2023-02-19T22:08:10.976Z,25.67
2023-02-19T22:08:44.449Z,26.00
2023-02-19T22:09:16.509Z,25.67
2023-02-19T22:09:49.688Z,25.00
2023-02-19T22:10:21.647Z,25.00
2023-02-19T22:10:53.318Z,25.00
2023-02-19T22:11:25.216Z,25.00
2023-02-19T22:11:56.879Z,25.00
2023-02-19T22:12:28.617Z,25.00
2023-02-19T22:13:00.359Z,25.00
2023-02-19T22:13:32.060Z,25.00
2023-02-19T22:14:04.114Z,25.00
2023-02-19T22:14:35.817Z,25.00
2023-02-19T22:15:07.910Z,25.00
2023-02-19T22:15:39.607Z,25.00
2023-02-19T22:16:11.599Z,25.00
2023-02-19T22:16:43.562Z,25.00
2023-02-19T22:17:15.449Z,25.00
2023-02-19T22:17:47.233Z,25.00
2023-02-19T22:18:18.901Z,25.00
2023-02-19T22:18:53.497Z,25.00
2023-02-19T22:19:25.182Z,25.00
2023-02-19T22:19:56.866Z,25.00
2023-02-19T22:20:28.535Z,25.00
2023-02-19T22:21:00.372Z,25.00
2023-02-19T22:21:34.981Z,25.00
2023-02-19T22:22:08.077Z,25.00
2023-02-19T22:22:40.866Z,26.00
2023-02-19T22:23:12.701Z,26.00
2023-02-19T22:23:46.233Z,26.00
2023-02-19T22:24:20.862Z,25.00
2023-02-19T22:24:53.085Z,25.00
2023-02-19T22:25:24.761Z,25.00
2023-02-19T22:25:56.501Z,25.00
2023-02-19T22:26:32.364Z,25.00
2023-02-19T22:27:04.348Z,26.00
2023-02-19T22:27:36.116Z,26.00
2023-02-19T22:28:07.925Z,26.00
2023-02-19T22:28:39.651Z,26.00
2023-02-19T22:29:14.434Z,26.00
2023-02-19T22:29:46.116Z,26.00
2023-02-19T22:30:18.135Z,26.00
2023-02-19T22:30:49.876Z,26.00
2023-02-19T22:31:23.946Z,26.00
2023-02-19T22:31:56.097Z,26.00
2023-02-19T22:32:27.966Z,26.00
2023-02-19T22:32:59.953Z,26.00
2023-02-19T22:33:31.653Z,26.00
2023-02-19T22:34:04.032Z,26.00
2023-02-19T22:34:40.328Z,26.00
2023-02-19T22:35:12.939Z,26.00
2023-02-19T22:35:45.460Z,26.00
2023-02-19T22:36:24.195Z,26.00
2023-02-19T22:36:55.873Z,26.00
2023-02-19T22:37:28.125Z,26.00
2023-02-19T22:37:59.795Z,26.00
2023-02-19T22:38:31.507Z,26.00
2023-02-19T22:39:05.010Z,26.00
2023-02-19T22:39:36.695Z,26.00
2023-02-19T22:40:08.548Z,26.00
2023-02-19T22:40:40.318Z,26.00
2023-02-19T22:41:12.170Z,26.00
2023-02-19T22:41:44.219Z,26.00
2023-02-19T22:42:16.650Z,26.00
2023-02-19T22:42:48.364Z,26.00
2023-02-19T22:43:20.023Z,26.00
2023-02-19T22:43:55.044Z,26.00
2023-02-19T22:44:26.818Z,26.00
2023-02-19T22:44:58.665Z,26.33
2023-02-19T22:45:30.431Z,27.00
2023-02-19T22:46:02.458Z,27.00
2023-02-19T22:46:34.175Z,27.00
2023-02-19T22:47:05.887Z,27.00
2023-02-19T22:47:37.961Z,27.00
2023-02-19T22:48:10.527Z,27.00
2023-02-19T22:48:43.538Z,27.00
2023-02-19T22:49:15.481Z,27.00
2023-02-19T22:49:47.237Z,27.00
2023-02-19T22:50:22.567Z,27.00
2023-02-19T22:50:55.026Z,27.00
2023-02-19T22:51:26.764Z,27.00
2023-02-19T22:52:03.324Z,27.00
2023-02-19T22:52:35.024Z,27.00
2023-02-19T22:53:06.710Z,27.00
2023-02-19T22:53:42.865Z,27.00
2023-02-19T22:54:15.772Z,27.00
2023-02-19T22:54:47.501Z,27.00
2023-02-19T22:55:19.338Z,28.00
2023-02-19T22:55:51.632Z,29.00
2023-02-19T22:56:26.189Z,29.00
2023-02-19T22:56:57.876Z,29.00
2023-02-19T22:57:29.540Z,29.00
2023-02-19T22:58:01.286Z,29.00
2023-02-19T22:58:32.989Z,29.00
2023-02-19T22:59:04.712Z,29.00
2023-02-19T22:59:36.389Z,28.00
2023-02-19T23:00:09.389Z,28.00
2023-02-19T23:00:41.224Z,28.00
2023-02-19T23:01:14.882Z,28.00
2023-02-19T23:01:46.691Z,28.00
2023-02-19T23:02:18.408Z,28.00
2023-02-19T23:02:51.056Z,28.00
2023-02-19T23:03:22.779Z,28.00
2023-02-19T23:03:59.346Z,27.33
2023-02-19T23:04:31.406Z,27.00
2023-02-19T23:05:03.123Z,27.00
2023-02-19T23:05:34.823Z,27.00
2023-02-19T23:06:06.503Z,27.00
2023-02-19T23:06:38.250Z,27.00
2023-02-19T23:07:10.111Z,27.00
2023-02-19T23:07:47.906Z,27.00
2023-02-19T23:08:19.692Z,27.00
2023-02-19T23:08:52.864Z,27.00
2023-02-19T23:09:27.243Z,27.00
2023-02-19T23:09:58.945Z,27.00
2023-02-19T23:10:30.646Z,27.00
2023-02-19T23:11:02.356Z,27.00
2023-02-19T23:11:37.324Z,27.33
2023-02-19T23:12:11.670Z,28.00
2023-02-19T23:12:43.472Z,28.00
2023-02-19T23:13:15.299Z,28.00
2023-02-19T23:13:47.003Z,28.00
2023-02-19T23:14:21.144Z,28.00
2023-02-19T23:14:52.897Z,28.00
2023-02-19T23:15:24.675Z,28.00
2023-02-19T23:15:56.469Z,28.00
2023-02-19T23:16:28.689Z,28.00
2023-02-19T23:17:00.823Z,28.00
2023-02-19T23:17:33.091Z,28.00
2023-02-19T23:18:06.259Z,28.00
2023-02-19T23:18:37.931Z,28.00
2023-02-19T23:19:13.101Z,28.00
2023-02-19T23:19:44.852Z,28.00
2023-02-19T23:20:16.973Z,28.00
2023-02-19T23:20:48.678Z,28.00
2023-02-19T23:21:21.640Z,28.00
2023-02-19T23:21:53.912Z,28.00
2023-02-19T23:22:25.598Z,28.00
2023-02-19T23:22:57.767Z,28.00
2023-02-19T23:23:29.519Z,28.00